createdAt,value
2022-09-03T00:01:25.173Z,2.63
2022-09-03T00:03:31.154Z,2.47
2022-09-03T00:05:40.041Z,2.73
2022-09-03T00:07:49.168Z,2.70
2022-09-03T00:09:57.099Z,3.00
2022-09-03T00:12:04.566Z,2.83
2022-09-03T00:14:10.877Z,2.73
2022-09-03T00:16:16.065Z,2.90
2022-09-03T00:18:22.356Z,3.20
2022-09-03T00:20:29.367Z,3.07
2022-09-03T00:22:37.018Z,2.97
2022-09-03T00:24:42.224Z,2.57
2022-09-03T00:26:46.992Z,2.73
2022-09-03T00:28:53.835Z,3.30
2022-09-03T00:31:06.737Z,2.77
2022-09-03T00:33:13.213Z,2.63
2022-09-03T00:35:21.747Z,2.80
2022-09-03T00:37:24.757Z,2.50
2022-09-03T00:39:31.218Z,2.60
2022-09-03T00:41:38.642Z,2.63
2022-09-03T00:44:01.412Z,2.57
2022-09-03T00:46:09.534Z,2.60
2022-09-03T00:48:19.046Z,2.70
2022-09-03T00:50:33.298Z,2.20
2022-09-03T00:52:47.396Z,2.40
2022-09-03T00:54:57.191Z,3.20
2022-09-03T00:57:08.049Z,2.70
2022-09-03T00:59:22.804Z,2.67
2022-09-03T01:01:30.462Z,2.50
2022-09-03T01:03:37.936Z,2.33
2022-09-03T01:05:55.055Z,2.50
2022-09-03T01:08:11.775Z,2.60
2022-09-03T01:10:26.159Z,3.00
2022-09-03T01:12:36.210Z,2.57
2022-09-03T01:14:47.407Z,3.23
2022-09-03T01:16:53.416Z,2.27
2022-09-03T01:19:05.392Z,2.63
2022-09-03T01:21:29.562Z,2.50
2022-09-03T01:24:07.387Z,2.63
2022-09-03T01:26:23.348Z,2.77
2022-09-03T01:28:45.330Z,2.70
2022-09-03T01:30:57.132Z,2.33
2022-09-03T01:33:06.343Z,2.50
2022-09-03T01:35:16.377Z,2.33
2022-09-03T01:37:28.338Z,2.80
2022-09-03T01:39:35.993Z,2.70
2022-09-03T01:42:05.564Z,3.10
2022-09-03T01:44:16.778Z,2.60
2022-09-03T01:46:23.003Z,2.50
2022-09-03T01:48:41.816Z,2.60
2022-09-03T01:50:47.751Z,2.30
2022-09-03T01:52:55.004Z,2.40
2022-09-03T01:55:07.212Z,2.77
2022-09-03T01:57:36.680Z,2.60
2022-09-03T01:59:46.722Z,2.67
2022-09-03T02:01:56.877Z,2.97
2022-09-03T02:04:00.386Z,2.80
2022-09-03T02:06:07.152Z,2.47
2022-09-03T02:08:11.675Z,2.43
2022-09-03T02:10:17.152Z,2.67
2022-09-03T02:12:21.676Z,2.57
2022-09-03T02:14:25.708Z,2.30
2022-09-03T02:16:33.042Z,2.50
2022-09-03T02:18:41.357Z,2.13
2022-09-03T02:20:44.745Z,2.43
2022-09-03T02:22:48.851Z,2.57
2022-09-03T02:24:52.148Z,2.37
2022-09-03T02:26:55.793Z,2.67
2022-09-03T02:28:59.004Z,2.23
2022-09-03T02:31:02.787Z,2.70
2022-09-03T02:33:07.312Z,2.80
2022-09-03T02:35:11.043Z,2.27
2022-09-03T02:37:18.267Z,2.53
2022-09-03T02:39:21.177Z,2.50
2022-09-03T02:41:27.336Z,2.60
2022-09-03T02:43:36.115Z,2.27
2022-09-03T02:45:44.262Z,2.00
2022-09-03T02:47:49.333Z,2.57
2022-09-03T02:49:53.666Z,2.77
2022-09-03T02:52:00.785Z,2.43
2022-09-03T02:54:03.960Z,2.40
2022-09-03T02:56:07.538Z,2.60
2022-09-03T02:58:10.577Z,2.23
2022-09-03T03:00:15.078Z,2.53
2022-09-03T03:02:18.132Z,2.60
2022-09-03T03:04:21.317Z,2.73
2022-09-03T03:06:25.663Z,2.73
2022-09-03T03:08:30.283Z,2.40
2022-09-03T03:10:33.255Z,2.60
2022-09-03T03:12:36.403Z,2.43
2022-09-03T03:14:39.403Z,2.50
2022-09-03T03:16:42.511Z,2.03
2022-09-03T03:18:47.317Z,2.80
2022-09-03T03:20:50.212Z,2.70
2022-09-03T03:22:54.569Z,2.77
2022-09-03T03:24:57.888Z,2.40
2022-09-03T03:27:00.894Z,2.50
2022-09-03T03:29:05.714Z,2.30
2022-09-03T03:31:09.364Z,2.90
2022-09-03T03:33:12.452Z,2.43
2022-09-03T03:35:15.804Z,2.60
2022-09-03T03:37:18.865Z,2.33
2022-09-03T03:39:23.202Z,2.40
2022-09-03T03:41:28.212Z,2.40
2022-09-03T03:43:33.564Z,2.40
2022-09-03T03:45:36.584Z,2.77
2022-09-03T03:47:39.621Z,2.47
2022-09-03T03:49:42.752Z,2.40
2022-09-03T03:51:45.764Z,2.23
2022-09-03T03:53:48.764Z,2.90
2022-09-03T03:56:04.467Z,2.90
2022-09-03T03:58:07.450Z,2.97
2022-09-03T04:00:11.385Z,3.40
2022-09-03T04:02:20.025Z,3.00
2022-09-03T04:04:23.064Z,3.80
2022-09-03T04:06:26.017Z,3.20
2022-09-03T04:08:29.579Z,3.60
2022-09-03T04:10:32.612Z,3.07
2022-09-03T04:12:36.909Z,3.40
2022-09-03T04:14:39.983Z,3.20
2022-09-03T04:16:43.278Z,3.07
2022-09-03T04:18:47.220Z,3.23
2022-09-03T04:20:50.446Z,2.97
2022-09-03T04:22:53.460Z,2.83
2022-09-03T04:24:56.447Z,2.87
2022-09-03T04:26:59.503Z,2.70
2022-09-03T04:29:05.577Z,2.70
2022-09-03T04:31:09.588Z,2.70
2022-09-03T04:33:16.169Z,2.97
2022-09-03T04:35:20.454Z,3.10
2022-09-03T04:37:23.467Z,2.93
2022-09-03T04:39:26.883Z,3.13
2022-09-03T04:41:31.077Z,3.20
2022-09-03T04:43:34.142Z,2.90
2022-09-03T04:45:38.486Z,3.27
2022-09-03T04:47:42.225Z,3.03
2022-09-03T04:49:45.203Z,2.77
2022-09-03T04:51:48.178Z,2.80
2022-09-03T04:53:56.560Z,3.53
2022-09-03T04:55:59.660Z,3.37
2022-09-03T04:58:02.904Z,2.70
2022-09-03T05:00:10.581Z,3.20
2022-09-03T05:02:15.537Z,2.77
2022-09-03T05:04:19.156Z,3.20
2022-09-03T05:06:22.129Z,3.27
2022-09-03T05:08:26.493Z,3.33
2022-09-03T05:10:29.759Z,3.47
2022-09-03T05:12:33.378Z,2.90
2022-09-03T05:14:36.547Z,2.77
2022-09-03T05:16:39.907Z,3.10
2022-09-03T05:18:45.077Z,3.00
2022-09-03T05:20:48.207Z,3.10
2022-09-03T05:22:51.225Z,3.17
2022-09-03T05:24:56.207Z,3.20
2022-09-03T05:26:59.325Z,2.93
2022-09-03T05:29:07.568Z,3.07
2022-09-03T05:31:12.362Z,3.10
2022-09-03T05:33:16.538Z,2.70
2022-09-03T05:35:25.358Z,2.90
2022-09-03T05:37:28.977Z,3.60
2022-09-03T05:39:32.157Z,3.40
2022-09-03T05:41:35.404Z,3.27
2022-09-03T05:43:39.149Z,3.47
2022-09-03T05:45:42.189Z,3.17
2022-09-03T05:47:45.233Z,3.20
2022-09-03T05:49:48.254Z,2.97
2022-09-03T05:51:55.026Z,2.83
2022-09-03T05:53:59.000Z,3.40
2022-09-03T05:56:03.147Z,3.20
2022-09-03T05:58:06.093Z,3.43
2022-09-03T06:00:10.911Z,3.37
2022-09-03T06:02:15.175Z,3.33
2022-09-03T06:04:18.269Z,3.10
2022-09-03T06:06:26.504Z,3.37
2022-09-03T06:08:30.982Z,3.57
2022-09-03T06:10:40.697Z,3.00
2022-09-03T06:12:45.018Z,3.03
2022-09-03T06:14:48.052Z,3.53
2022-09-03T06:16:52.849Z,3.07
2022-09-03T06:18:56.416Z,3.13
2022-09-03T06:21:01.249Z,3.10
2022-09-03T06:23:04.302Z,3.47
2022-09-03T06:25:09.831Z,3.47
2022-09-03T06:27:13.064Z,3.27
2022-09-03T06:29:19.839Z,2.80
2022-09-03T06:31:23.783Z,2.87
2022-09-03T06:33:26.834Z,3.40
2022-09-03T06:35:29.863Z,3.40
2022-09-03T06:37:41.053Z,3.20
2022-09-03T06:39:44.127Z,3.27
2022-09-03T06:41:52.002Z,3.37
2022-09-03T06:44:03.668Z,3.13
2022-09-03T06:46:08.821Z,3.27
2022-09-03T06:48:11.849Z,3.10
2022-09-03T06:50:15.211Z,3.50
2022-09-03T06:52:18.251Z,3.20
2022-09-03T06:54:21.222Z,3.33
2022-09-03T06:56:27.023Z,3.50
2022-09-03T06:58:32.712Z,3.03
2022-09-03T07:00:35.781Z,3.40
2022-09-03T07:02:44.822Z,3.90
2022-09-03T07:04:49.850Z,3.40
2022-09-03T07:06:52.849Z,3.60
2022-09-03T07:08:59.722Z,3.30
2022-09-03T07:11:05.352Z,3.83
2022-09-03T07:13:08.352Z,3.63
2022-09-03T07:15:13.009Z,3.53
2022-09-03T07:17:16.416Z,3.70
2022-09-03T07:19:19.724Z,4.17
2022-09-03T07:21:24.118Z,3.67
2022-09-03T07:23:27.265Z,3.80
2022-09-03T07:25:31.417Z,3.57
2022-09-03T07:27:35.840Z,3.73
2022-09-03T07:29:38.852Z,3.90
2022-09-03T07:31:44.406Z,4.20
2022-09-03T07:33:47.747Z,3.70
2022-09-03T07:35:50.731Z,4.00
2022-09-03T07:37:55.125Z,4.00
2022-09-03T07:39:58.331Z,3.73
2022-09-03T07:42:02.636Z,3.70
2022-09-03T07:44:06.564Z,3.80
2022-09-03T07:46:13.056Z,3.80
2022-09-03T07:48:17.969Z,3.60
2022-09-03T07:50:21.102Z,3.90
2022-09-03T07:52:24.186Z,3.93
2022-09-03T07:54:27.919Z,3.73
2022-09-03T07:56:32.054Z,4.30
2022-09-03T07:58:36.356Z,4.27
2022-09-03T08:00:39.617Z,3.70
2022-09-03T08:02:46.123Z,4.30
2022-09-03T08:04:50.859Z,3.77
2022-09-03T08:06:55.646Z,3.70
2022-09-03T08:09:04.959Z,3.70
2022-09-03T08:11:10.789Z,3.60
2022-09-03T08:13:13.808Z,3.80
2022-09-03T08:15:16.878Z,3.90
2022-09-03T08:17:19.886Z,3.73
2022-09-03T08:19:23.230Z,4.10
2022-09-03T08:21:28.562Z,4.20
2022-09-03T08:23:31.655Z,3.67
2022-09-03T08:25:34.661Z,3.90
2022-09-03T08:27:37.680Z,3.90
2022-09-03T08:29:42.043Z,4.10
2022-09-03T08:31:45.443Z,3.90
2022-09-03T08:33:50.787Z,3.70
2022-09-03T08:35:54.995Z,3.57
2022-09-03T08:38:05.286Z,3.50
2022-09-03T08:40:10.624Z,3.70
2022-09-03T08:42:46.462Z,3.70
2022-09-03T08:44:51.702Z,3.80
2022-09-03T08:46:58.060Z,4.50
2022-09-03T08:49:01.817Z,4.00
2022-09-03T08:51:04.979Z,3.87
2022-09-03T08:53:15.961Z,3.70
2022-09-03T08:55:23.195Z,3.80
2022-09-03T08:57:26.745Z,3.60
2022-09-03T08:59:33.249Z,4.10
2022-09-03T09:01:45.390Z,4.10
2022-09-03T09:03:56.761Z,3.90
2022-09-03T09:06:08.047Z,3.53
2022-09-03T09:08:18.025Z,3.80
2022-09-03T09:10:25.356Z,4.23
2022-09-03T09:12:42.788Z,4.30
2022-09-03T09:14:53.513Z,3.63
2022-09-03T09:17:02.320Z,4.30
2022-09-03T09:19:14.490Z,4.30
2022-09-03T09:21:22.597Z,4.20
2022-09-03T09:23:31.413Z,3.93
2022-09-03T09:25:39.130Z,4.30
2022-09-03T09:27:51.743Z,4.07
2022-09-03T09:29:56.345Z,4.00
2022-09-03T09:31:59.566Z,4.50
2022-09-03T09:34:06.761Z,3.90
2022-09-03T09:36:13.565Z,4.20
2022-09-03T09:38:16.844Z,4.23
2022-09-03T09:40:32.190Z,4.20
2022-09-03T09:42:35.157Z,4.23
2022-09-03T09:44:39.010Z,4.50
2022-09-03T09:46:42.921Z,4.30
2022-09-03T09:48:50.903Z,4.43
2022-09-03T09:51:06.068Z,4.43
2022-09-03T09:53:14.766Z,4.43
2022-09-03T09:55:20.322Z,4.40
2022-09-03T09:57:26.356Z,5.43
2022-09-03T09:59:29.471Z,4.10
2022-09-03T10:01:33.194Z,4.30
2022-09-03T10:03:36.593Z,4.20
2022-09-03T10:05:40.639Z,4.10
2022-09-03T10:07:43.853Z,4.57
2022-09-03T10:09:47.053Z,4.50
2022-09-03T10:11:52.266Z,4.47
2022-09-03T10:13:57.464Z,4.77
2022-09-03T10:16:04.554Z,4.20
2022-09-03T10:18:12.337Z,4.63
2022-09-03T10:20:31.176Z,4.83
2022-09-03T10:22:38.989Z,4.70
2022-09-03T10:25:00.212Z,4.77
2022-09-03T10:27:03.296Z,4.70
2022-09-03T10:29:08.820Z,4.00
2022-09-03T10:31:26.845Z,4.70
2022-09-03T10:33:33.495Z,4.67
2022-09-03T10:35:42.074Z,4.30
2022-09-03T10:37:50.859Z,4.60
2022-09-03T10:40:02.304Z,3.93
2022-09-03T10:42:14.890Z,4.40
2022-09-03T10:44:35.601Z,4.97
2022-09-03T10:46:46.449Z,4.10
2022-09-03T10:49:16.012Z,4.73
2022-09-03T10:51:21.546Z,4.37
2022-09-03T10:53:53.572Z,4.43
2022-09-03T10:56:01.511Z,3.77
2022-09-03T10:58:15.823Z,4.10
2022-09-03T11:00:22.347Z,4.87
2022-09-03T11:02:55.246Z,3.80
2022-09-03T11:05:02.861Z,3.77
2022-09-03T11:07:09.049Z,3.77
2022-09-03T11:09:16.599Z,3.80
2022-09-03T11:11:26.508Z,3.93
2022-09-03T11:13:35.413Z,3.50
2022-09-03T11:15:42.533Z,3.97
2022-09-03T11:17:56.790Z,3.80
2022-09-03T11:20:13.005Z,4.00
2022-09-03T11:22:20.981Z,4.10
2022-09-03T11:24:26.648Z,4.20
2022-09-03T11:26:30.095Z,4.20
2022-09-03T11:28:42.286Z,4.30
2022-09-03T11:30:58.486Z,4.00
2022-09-03T11:33:07.277Z,4.37
2022-09-03T11:35:16.273Z,4.70
2022-09-03T11:37:22.433Z,3.90
2022-09-03T11:39:35.735Z,4.30
2022-09-03T11:41:39.738Z,4.37
2022-09-03T11:43:44.061Z,4.20
2022-09-03T11:45:47.164Z,4.17
2022-09-03T11:47:52.239Z,4.00
2022-09-03T11:50:06.947Z,3.40
2022-09-03T11:52:10.732Z,3.63
2022-09-03T11:54:27.097Z,3.70
2022-09-03T11:56:31.424Z,3.73
2022-09-03T11:58:36.453Z,4.70
2022-09-03T12:00:41.097Z,3.33
2022-09-03T12:02:46.395Z,3.63
2022-09-03T12:04:56.180Z,3.60
2022-09-03T12:07:20.141Z,3.73
2022-09-03T12:09:36.977Z,3.43
2022-09-03T12:11:47.663Z,3.53
2022-09-03T12:13:55.153Z,3.67
2022-09-03T12:16:39.429Z,4.50
2022-09-03T12:18:43.734Z,4.00
2022-09-03T12:20:50.825Z,4.03
2022-09-03T12:25:12.071Z,3.90
2022-09-03T12:27:19.567Z,4.07
2022-09-03T12:29:27.897Z,4.13
2022-09-03T12:31:32.967Z,4.20
2022-09-03T12:33:35.977Z,4.10
2022-09-03T12:38:04.933Z,4.00
2022-09-03T12:40:17.926Z,4.10
2022-09-03T12:42:26.272Z,4.30
2022-09-03T12:44:31.417Z,4.70
2022-09-03T12:46:35.109Z,4.13
2022-09-03T12:48:40.301Z,4.40
2022-09-03T12:50:56.198Z,3.93
2022-09-03T12:53:01.257Z,4.47
2022-09-03T12:55:09.832Z,4.57
2022-09-03T12:57:14.251Z,4.17
2022-09-03T12:59:21.466Z,4.37
2022-09-03T13:01:26.611Z,4.33
2022-09-03T13:03:31.972Z,4.40
2022-09-03T13:05:42.837Z,4.50
2022-09-03T13:07:47.739Z,4.20
2022-09-03T13:09:51.100Z,4.40
2022-09-03T13:11:55.688Z,4.60
2022-09-03T13:14:05.404Z,4.50
2022-09-03T13:16:21.156Z,4.30
2022-09-03T13:18:28.799Z,4.77
2022-09-03T13:20:35.993Z,4.53
2022-09-03T13:22:48.017Z,5.00
2022-09-03T13:25:00.842Z,4.30
2022-09-03T13:27:10.355Z,3.77
2022-09-03T13:29:39.626Z,3.47
2022-09-03T13:31:46.527Z,2.70
2022-09-03T13:33:52.690Z,2.80
2022-09-03T13:36:01.412Z,2.50
2022-09-03T13:38:10.374Z,2.00
2022-09-03T13:40:20.512Z,2.30
2022-09-03T13:42:29.332Z,1.93
2022-09-03T13:44:38.832Z,2.20
2022-09-03T13:46:45.961Z,1.97
2022-09-03T13:49:07.382Z,1.80
2022-09-03T13:51:13.244Z,2.00
2022-09-03T13:53:22.725Z,2.07
2022-09-03T13:55:30.721Z,2.30
2022-09-03T13:57:39.856Z,2.20
2022-09-03T13:59:49.222Z,1.90
2022-09-03T14:02:02.144Z,2.50
2022-09-03T14:04:05.335Z,1.97
2022-09-03T14:06:14.493Z,2.17
2022-09-03T14:08:25.162Z,2.40
2022-09-03T14:10:35.212Z,2.43
2022-09-03T14:12:44.263Z,2.93
2022-09-03T14:14:54.856Z,2.73
2022-09-03T14:17:01.546Z,2.60
2022-09-03T14:19:07.544Z,2.30
2022-09-03T14:21:14.706Z,2.70
2022-09-03T14:23:29.214Z,2.37
2022-09-03T14:25:32.597Z,2.50
2022-09-03T14:27:36.601Z,2.37
2022-09-03T14:29:52.787Z,2.43
2022-09-03T14:32:15.445Z,2.10
2022-09-03T14:34:25.604Z,1.77
2022-09-03T14:36:36.753Z,1.57
2022-09-03T14:38:52.804Z,1.87
2022-09-03T14:41:05.807Z,1.80
2022-09-03T14:43:17.400Z,1.63
2022-09-03T14:45:45.432Z,1.57
2022-09-03T14:48:02.253Z,1.70
2022-09-03T14:50:13.874Z,1.63
2022-09-03T14:52:29.745Z,1.67
2022-09-03T14:54:51.997Z,1.53
2022-09-03T14:57:07.472Z,1.70
2022-09-03T14:59:25.583Z,1.67
2022-09-03T15:01:39.740Z,1.70
2022-09-03T15:04:34.435Z,1.70
2022-09-03T15:06:44.340Z,1.70
2022-09-03T15:09:09.260Z,1.67
2022-09-03T15:11:17.958Z,1.80
2022-09-03T15:13:22.426Z,1.43
2022-09-03T15:15:33.699Z,1.47
2022-09-03T15:17:57.535Z,1.60
2022-09-03T15:20:12.140Z,1.80
2022-09-03T15:22:21.161Z,1.80
2022-09-03T15:24:31.082Z,2.10
2022-09-03T15:26:48.575Z,2.00
2022-09-03T15:29:01.824Z,1.87
2022-09-03T15:31:13.619Z,1.60
2022-09-03T15:33:24.748Z,1.70
2022-09-03T15:35:41.229Z,1.97
2022-09-03T15:37:47.108Z,1.80
2022-09-03T15:40:00.693Z,1.97
2022-09-03T15:42:09.201Z,1.77
2022-09-03T15:44:19.167Z,1.90
2022-09-03T15:46:38.400Z,1.87
2022-09-03T15:48:50.496Z,2.00
2022-09-03T15:50:57.232Z,1.80
2022-09-03T15:53:04.990Z,2.00
2022-09-03T15:55:10.289Z,1.90
2022-09-03T15:57:17.702Z,1.90
2022-09-03T15:59:23.682Z,1.60
2022-09-03T16:01:44.770Z,1.70
2022-09-03T16:04:01.158Z,2.10
2022-09-03T16:06:07.775Z,1.70
2022-09-03T16:08:22.104Z,1.70
2022-09-03T16:10:36.800Z,1.80
2022-09-03T16:12:46.558Z,2.00
2022-09-03T16:14:55.301Z,1.97
2022-09-03T16:17:02.995Z,1.80
2022-09-03T16:19:12.133Z,1.90
2022-09-03T16:21:23.753Z,1.87
2022-09-03T16:23:29.866Z,1.90
2022-09-03T16:25:38.602Z,1.90
2022-09-03T16:27:47.595Z,1.87
2022-09-03T16:30:03.445Z,1.80
2022-09-03T16:32:26.946Z,1.70
2022-09-03T16:34:37.839Z,1.70
2022-09-03T16:36:45.778Z,1.90
2022-09-03T16:38:54.248Z,1.90
2022-09-03T16:41:00.504Z,2.10
2022-09-03T16:43:23.812Z,1.80
2022-09-03T16:45:36.423Z,2.13
2022-09-03T16:47:55.570Z,2.30
2022-09-03T16:50:09.701Z,1.70
2022-09-03T16:52:18.358Z,2.17
2022-09-03T16:54:33.748Z,2.07
2022-09-03T16:56:51.003Z,1.87
2022-09-03T16:58:59.131Z,2.20
2022-09-03T17:01:12.184Z,2.10
2022-09-03T17:03:41.685Z,2.50
2022-09-03T17:06:22.379Z,2.10
2022-09-03T17:08:31.664Z,2.10
2022-09-03T17:10:42.429Z,1.93
2022-09-03T17:12:51.110Z,2.07
2022-09-03T17:15:24.500Z,1.83
2022-09-03T17:17:49.081Z,1.70
2022-09-03T17:19:54.951Z,1.90
2022-09-03T17:22:10.101Z,1.90
2022-09-03T17:24:35.942Z,1.77
2022-09-03T17:26:52.036Z,1.80
2022-09-03T17:29:04.993Z,1.93
2022-09-03T17:31:16.117Z,1.90
2022-09-03T17:33:48.087Z,2.00
2022-09-03T17:35:56.686Z,2.40
2022-09-03T17:38:09.426Z,2.40
2022-09-03T17:40:24.079Z,1.80
2022-09-03T17:42:33.080Z,1.80
2022-09-03T17:44:47.767Z,1.80
2022-09-03T17:47:00.395Z,2.00
2022-09-03T17:49:04.678Z,2.03
2022-09-03T17:51:12.409Z,2.30
2022-09-03T17:53:24.756Z,2.07
2022-09-03T17:55:32.744Z,2.10
2022-09-03T17:57:41.660Z,2.60
2022-09-03T17:59:48.317Z,2.00
2022-09-03T18:01:54.428Z,2.20
2022-09-03T18:04:04.943Z,1.80
2022-09-03T18:06:10.695Z,2.30
2022-09-03T18:08:17.483Z,2.37
2022-09-03T18:10:27.002Z,1.80
2022-09-03T18:12:38.903Z,2.30
2022-09-03T18:14:47.229Z,2.17
2022-09-03T18:16:56.060Z,1.93
2022-09-03T18:19:02.913Z,2.37
2022-09-03T18:21:31.290Z,18.90
2022-09-03T18:23:59.945Z,21.20
2022-09-03T18:26:25.505Z,7.00
2022-09-03T18:28:52.674Z,2.33
2022-09-03T18:31:13.487Z,2.33
2022-09-03T18:33:37.370Z,14.47
2022-09-03T18:35:58.223Z,6.00
2022-09-03T18:38:21.187Z,6.23
2022-09-03T18:40:47.031Z,3.40
2022-09-03T18:43:17.945Z,5.50
2022-09-03T18:46:17.600Z,8.40
2022-09-03T18:48:30.595Z,5.17
2022-09-03T18:50:55.425Z,2.63
2022-09-03T18:53:18.616Z,2.47
2022-09-03T18:55:43.930Z,2.50
2022-09-03T18:58:13.704Z,4.57
2022-09-03T19:00:34.633Z,2.33
2022-09-03T19:03:01.686Z,2.37
2022-09-03T19:05:31.362Z,2.50
2022-09-03T19:08:00.280Z,2.87
2022-09-03T19:10:27.055Z,2.80
2022-09-03T19:13:17.365Z,3.60
2022-09-03T19:15:43.336Z,2.63
2022-09-03T19:18:23.502Z,2.73
2022-09-03T19:20:47.543Z,3.20
2022-09-03T19:23:08.314Z,3.23
2022-09-03T19:25:30.836Z,3.00
2022-09-03T19:27:59.913Z,3.70
2022-09-03T19:30:25.052Z,3.37
2022-09-03T19:32:54.886Z,4.17
2022-09-03T19:35:27.896Z,3.53
2022-09-03T19:37:52.164Z,4.07
2022-09-03T19:40:36.143Z,3.53
2022-09-03T19:43:06.057Z,4.30
2022-09-03T19:45:33.670Z,4.23
2022-09-03T19:48:04.090Z,3.97
2022-09-03T19:50:32.119Z,3.50
2022-09-03T19:52:59.538Z,3.60
2022-09-03T19:55:21.217Z,3.97
2022-09-03T19:57:42.242Z,3.87
2022-09-03T20:00:04.277Z,3.80
2022-09-03T20:02:34.010Z,4.00
2022-09-03T20:04:58.709Z,4.10
2022-09-03T20:07:21.830Z,3.90
2022-09-03T20:09:48.203Z,3.50
2022-09-03T20:11:52.407Z,3.67
2022-09-03T20:14:14.758Z,4.00
2022-09-03T20:16:24.733Z,3.93
2022-09-03T20:18:40.077Z,4.10
2022-09-03T20:20:47.489Z,4.07
2022-09-03T20:22:54.873Z,3.87
2022-09-03T20:25:12.949Z,3.80
2022-09-03T20:27:24.316Z,3.20
2022-09-03T20:29:44.493Z,3.23
2022-09-03T20:31:51.677Z,3.67
2022-09-03T20:34:11.902Z,3.67
2022-09-03T20:36:22.551Z,3.40
2022-09-03T20:38:43.749Z,3.17
2022-09-03T20:40:48.177Z,3.40
2022-09-03T20:43:15.089Z,3.70
2022-09-03T20:45:19.818Z,3.53
2022-09-03T20:47:49.413Z,3.30
2022-09-03T20:49:56.912Z,3.60
2022-09-03T20:52:07.420Z,3.20
2022-09-03T20:54:14.565Z,3.40
2022-09-03T20:56:22.586Z,3.10
2022-09-03T20:58:32.069Z,3.20
2022-09-03T21:00:48.106Z,3.57
2022-09-03T21:03:04.456Z,3.47
2022-09-03T21:05:16.053Z,3.57
2022-09-03T21:07:24.894Z,3.70
2022-09-03T21:09:33.540Z,3.63
2022-09-03T21:11:41.540Z,3.80
2022-09-03T21:13:51.935Z,4.00
2022-09-03T21:15:59.945Z,3.63
2022-09-03T21:18:07.966Z,3.20
2022-09-03T21:20:19.974Z,3.50
2022-09-03T21:22:30.557Z,3.63
2022-09-03T21:24:37.635Z,3.40
2022-09-03T21:26:46.096Z,3.73
2022-09-03T21:28:55.925Z,3.50
2022-09-03T21:31:00.757Z,3.57
2022-09-03T21:33:06.221Z,3.30
2022-09-03T21:35:17.326Z,3.80
2022-09-03T21:37:21.453Z,3.83
2022-09-03T21:39:28.431Z,3.70
2022-09-03T21:41:34.005Z,3.60
2022-09-03T21:43:41.000Z,3.53
2022-09-03T21:45:51.028Z,3.77
2022-09-03T21:47:58.845Z,3.60
2022-09-03T21:50:10.897Z,3.50
2022-09-03T21:52:21.322Z,4.47
2022-09-03T21:54:28.910Z,4.20
2022-09-03T21:56:57.364Z,3.90
2022-09-03T21:59:09.523Z,3.70
2022-09-03T22:01:16.340Z,4.07
2022-09-03T22:03:19.570Z,4.77
2022-09-03T22:05:22.779Z,3.90
2022-09-03T22:07:39.924Z,4.30
2022-09-03T22:09:47.030Z,5.23
2022-09-03T22:11:54.107Z,5.10
2022-09-03T22:14:04.190Z,4.53
2022-09-03T22:16:13.422Z,3.83
2022-09-03T22:18:23.912Z,4.00
2022-09-03T22:20:32.073Z,3.97
2022-09-03T22:22:44.168Z,4.27
2022-09-03T22:24:50.974Z,4.27
2022-09-03T22:26:59.247Z,4.20
2022-09-03T22:29:06.806Z,3.70
2022-09-03T22:31:16.522Z,4.20
2022-09-03T22:33:23.655Z,4.53
2022-09-03T22:35:57.605Z,4.20
2022-09-03T22:38:18.612Z,3.87
2022-09-03T22:40:25.995Z,3.60
2022-09-03T22:42:51.288Z,3.90
2022-09-03T22:45:10.186Z,3.90
2022-09-03T22:47:20.013Z,4.13
2022-09-03T22:49:33.303Z,3.90
2022-09-03T22:51:45.794Z,4.27
2022-09-03T22:54:03.846Z,3.67
2022-09-03T22:56:09.029Z,3.97
2022-09-03T22:58:15.612Z,3.63
2022-09-03T23:00:19.183Z,4.03
2022-09-03T23:02:25.267Z,3.97
2022-09-03T23:04:31.650Z,3.93
2022-09-03T23:06:38.440Z,3.40
2022-09-03T23:08:46.132Z,4.17
2022-09-03T23:11:03.805Z,3.57
2022-09-03T23:13:10.517Z,4.03
2022-09-03T23:15:17.048Z,4.03
2022-09-03T23:19:30.538Z,4.20
2022-09-03T23:21:40.463Z,4.23
2022-09-03T23:23:48.273Z,4.27
2022-09-03T23:25:54.991Z,4.30
2022-09-03T23:28:02.256Z,4.40
2022-09-03T23:30:06.379Z,4.10
2022-09-03T23:32:10.112Z,4.50
2022-09-03T23:34:13.855Z,3.90
2022-09-03T23:36:51.099Z,4.70
2022-09-03T23:38:54.603Z,4.27
2022-09-03T23:40:58.734Z,4.03
2022-09-03T23:43:17.460Z,4.23
2022-09-03T23:45:27.955Z,4.10
2022-09-03T23:47:39.600Z,4.43
2022-09-03T23:49:50.334Z,4.40
2022-09-03T23:52:11.387Z,4.40
2022-09-03T23:54:20.940Z,4.53
2022-09-03T23:56:38.558Z,4.47
2022-09-03T23:58:51.211Z,4.20
